Terminal Aerodrome Forecast
Issued by NWS Rapid City, SD

Home | Current Version | Previous Version | Graphics & Text | Print | Product List | Glossary On
Versions: 1 2 3 4 5 6 7 8 9 10 11 12 13 14 15 16 17 18 19 20 21 22 23
000
FTUS43 KUNR 232320
TAFRAP
TAF
KRAP 232320Z 2400/2424 02014KT P6SM BKN120
      TEMPO 2400/2402 VRB15G25KT P6SM -TSRA BKN035CB
     FM240400 33015G23KT P6SM -SHRA BKN030 OVC050
     FM241200 29012KT P6SM SCT050=

USA.gov is the U.S. government's official web portal to all federal, state and local government web resources and services.